Currituck — AEFR — position and weather

sailwx.info

Track history (hours):
 
Tides and Currents Weather Stations Pressure Air Temp Water Temp Dewpoint Dewpoint Depression Visibility Wind Speed Wind Dir Waves Ship Positions

Currituck

Last reported at 2016-Aug-26 13:34 UTC. Time now 2016-Aug-26 13:46 UTC.
Position N 34°43' W 076°42'.

Length 45 m; draft 3 m.

Type: Dredging. MMSI: 369970446.

Date/timePositionNaut miles runAvg speedWind from/ knotsBaromVisibWave heightAir tempDewpointWater temp
2016-Aug-26 13:34N 34°43' W 076°42'0 0.0
2016-Aug-26 12:34N 34°43' W 076°42'0 0.0
2016-Aug-26 11:34N 34°43' W 076°42'0 0.0
2016-Aug-26 10:34N 34°43' W 076°42'0 0.0
2016-Aug-26 09:34N 34°43' W 076°42'0 0.0
2016-Aug-26 08:33N 34°43' W 076°42'0 0.0
2016-Aug-26 07:34N 34°43' W 076°42'0 0.0
2016-Aug-26 06:34N 34°43' W 076°42'0 0.0
2016-Aug-26 04:34N 34°43' W 076°42'0 0.0
2016-Aug-26 03:34N 34°43' W 076°42'0 0.0
2016-Aug-26 02:34N 34°43' W 076°42'0 0.0
2016-Aug-26 01:34N 34°43' W 076°42'0 0.0
2016-Aug-26 00:34N 34°43' W 076°42'0 0.4
2016-Aug-25 23:34N 34°43' W 076°42'0 0.0
2016-Aug-25 22:33N 34°43' W 076°42'0 0.0
2016-Aug-25 21:33N 34°43' W 076°42'0 0.0
2016-Aug-25 20:34N 34°43' W 076°42'0 0.0
2016-Aug-25 19:34N 34°43' W 076°42'0 0.0
2016-Aug-25 18:34N 34°43' W 076°42'0 0.0
2016-Aug-25 17:34N 34°43' W 076°42'0 0.4
2016-Aug-25 16:34N 34°43' W 076°42'0 0.0
2016-Aug-25 15:34N 34°43' W 076°42'0 0.0
2016-Aug-25 14:33N 34°43' W 076°42'0 0.0
2016-Aug-25 13:33N 34°43' W 076°42'0 0.0
2016-Aug-25 12:33N 34°43' W 076°42'0 0.0
2016-Aug-25 11:33N 34°43' W 076°42'0 0.0
2016-Aug-25 10:33N 34°43' W 076°42'0 0.0
2016-Aug-25 09:33N 34°43' W 076°42'0 0.0
2016-Aug-25 08:33N 34°43' W 076°42'0 0.0
2016-Aug-25 07:33N 34°43' W 076°42'0 0.0
2016-Aug-25 06:33N 34°43' W 076°42'0 0.0
2016-Aug-25 04:33N 34°43' W 076°42'0 0.0
2016-Aug-25 03:33N 34°43' W 076°42'0 0.0
2016-Aug-25 02:33N 34°43' W 076°42'0 0.0
2016-Aug-25 01:33N 34°43' W 076°42'0 0.0
2016-Aug-25 00:33N 34°43' W 076°42'0 0.0
2016-Aug-24 23:33N 34°43' W 076°42'0 0.0
2016-Aug-24 22:33N 34°43' W 076°42'0 0.0
2016-Aug-24 21:33N 34°43' W 076°42'1 0.7
2016-Aug-24 20:33N 34°43' W 076°42'4 3.9
2016-Aug-24 19:33N 34°42' W 076°37'0 0.0
2016-Aug-24 18:33N 34°43' W 076°37'0 0.1
2016-Aug-24 17:33N 34°42' W 076°37'4 4.4
2016-Aug-24 16:33N 34°43' W 076°42'0 0.0
2016-Aug-24 15:33N 34°43' W 076°42'0 0.0
2016-Aug-24 14:33N 34°43' W 076°42'0 0.0
2016-Aug-24 13:33N 34°43' W 076°42'0 0.0
2016-Aug-24 12:33N 34°43' W 076°42'0 0.0
2016-Aug-24 11:33N 34°43' W 076°42'0 0.0
2016-Aug-24 10:33N 34°43' W 076°42'0 0.0
2016-Aug-24 09:33N 34°43' W 076°42'0 0.0
2016-Aug-24 08:33N 34°43' W 076°42'0 0.0
2016-Aug-24 07:33N 34°43' W 076°42'0 0.0
2016-Aug-24 06:33N 34°43' W 076°42'0 0.0
2016-Aug-24 04:33N 34°43' W 076°42'0 0.0
2016-Aug-24 03:33N 34°43' W 076°42'0 0.0
2016-Aug-24 02:33N 34°43' W 076°42'0 0.0
2016-Aug-24 01:33N 34°43' W 076°42'0 0.0
2016-Aug-24 00:33N 34°43' W 076°42'0 0.0
2016-Aug-23 23:33N 34°43' W 076°42'0 0.0
2016-Aug-23 22:33N 34°43' W 076°42'0 0.0
2016-Aug-23 21:33N 34°43' W 076°42'0 0.0
2016-Aug-23 20:33N 34°43' W 076°42'0 0.0
2016-Aug-23 19:33N 34°43' W 076°42'0 0.3
2016-Aug-23 18:34N 34°43' W 076°42'2 2.1
2016-Aug-23 17:33N 34°42' W 076°40'2 2.1
2016-Aug-23 16:33N 34°43' W 076°38'1 0.9
2016-Aug-23 15:34N 34°43' W 076°37'3 2.9
2016-Aug-23 14:33N 34°41' W 076°40'1 1.0
2016-Aug-23 13:34N 34°42' W 076°41'0 0.0
2016-Aug-23 12:33N 34°42' W 076°41'2 2.2
2016-Aug-23 11:34N 34°40' W 076°41'2 2.2
2016-Aug-23 10:34N 34°42' W 076°41'2 1.6
2016-Aug-23 09:33N 34°43' W 076°42'0 0.0
2016-Aug-23 08:33N 34°43' W 076°42'0 0.0
2016-Aug-23 07:33N 34°43' W 076°42'0 0.0
2016-Aug-23 06:33N 34°43' W 076°42'0 0.0
2016-Aug-23 05:33N 34°43' W 076°42'0 0.0
2016-Aug-23 04:33N 34°43' W 076°42'0 0.0
2016-Aug-23 03:33N 34°43' W 076°42'0 0.0
2016-Aug-23 02:33N 34°43' W 076°42'0 0.0
2016-Aug-23 01:33N 34°43' W 076°42'0 0.0
2016-Aug-23 00:33N 34°43' W 076°42'0 0.0
2016-Aug-22 23:33N 34°43' W 076°42'0 0.0
2016-Aug-22 22:33N 34°43' W 076°42'0 0.0
2016-Aug-22 21:33N 34°43' W 076°42'2 2.4
2016-Aug-22 20:33N 34°42' W 076°40'1 0.8
2016-Aug-22 19:33N 34°42' W 076°41'0 0.0
2016-Aug-22 18:33N 34°42' W 076°41'2 2.1
2016-Aug-22 17:33N 34°40' W 076°41'2 2.2
2016-Aug-22 16:33N 34°42' W 076°41'2 1.8
2016-Aug-22 15:33N 34°41' W 076°40'2 1.8
2016-Aug-22 14:33N 34°42' W 076°41'0 0.4
2016-Aug-22 13:33N 34°42' W 076°40'0 0.1
2016-Aug-22 12:33N 34°42' W 076°40'0 0.5
2016-Aug-22 11:33N 34°42' W 076°41'2 1.5
2016-Aug-22 10:33N 34°43' W 076°42'0 0.1
2016-Aug-22 09:33N 34°43' W 076°42'0 0.0
2016-Aug-22 08:33N 34°43' W 076°42'0 0.0
2016-Aug-22 07:33N 34°43' W 076°42'0 0.0
2016-Aug-22 06:33N 34°43' W 076°42'0 0.0
2016-Aug-22 05:33N 34°43' W 076°42'0 0.0
2016-Aug-22 04:33N 34°43' W 076°42'0 0.0
2016-Aug-22 03:33N 34°43' W 076°42'0 0.0
2016-Aug-22 02:33N 34°43' W 076°42'0 0.0
2016-Aug-22 01:33N 34°43' W 076°42'  
2016-Aug-18 20:30N 34°41' W 076°40'2 1.8
2016-Aug-18 19:33N 34°42' W 076°41'2 2.3
2016-Aug-18 18:33N 34°40' W 076°41'2 2.2
2016-Aug-18 17:34N 34°42' W 076°41'2 2.3
2016-Aug-18 16:33N 34°40' W 076°41'2 2.3
2016-Aug-18 15:34N 34°42' W 076°41'2 2.2
2016-Aug-18 14:34N 34°40' W 076°41'3 3.2
2016-Aug-18 13:33N 34°43' W 076°38'1 1.2
2016-Aug-18 12:34N 34°42' W 076°37'3 3.2
2016-Aug-18 11:33N 34°41' W 076°40'2 1.8
2016-Aug-18 10:33N 34°42' W 076°41'2 1.6
2016-Aug-18 09:33N 34°43' W 076°42'0 0.0
2016-Aug-18 08:33N 34°43' W 076°42'0 0.0
2016-Aug-18 07:34N 34°43' W 076°42'0 0.0
2016-Aug-18 06:33N 34°43' W 076°42'0 0.0
2016-Aug-18 05:33N 34°43' W 076°42'0 0.0
2016-Aug-18 04:33N 34°43' W 076°42'0 0.0
2016-Aug-18 03:33N 34°43' W 076°42'0 0.0
2016-Aug-18 02:33N 34°43' W 076°42'0 0.0
2016-Aug-18 01:33N 34°43' W 076°42'0 0.0
2016-Aug-18 00:33N 34°43' W 076°42'0 0.0
2016-Aug-17 23:33N 34°43' W 076°42'0 0.0
2016-Aug-17 22:33N 34°43' W 076°42'0 0.0
2016-Aug-17 21:33N 34°43' W 076°42'3 2.9
2016-Aug-17 20:33N 34°41' W 076°40'1 1.4
2016-Aug-17 19:34N 34°42' W 076°41'1 0.9
2016-Aug-17 18:33N 34°41' W 076°40'1 0.9
2016-Aug-17 17:33N 34°42' W 076°41'2 2.1
2016-Aug-17 16:33N 34°40' W 076°41'2 2.1
2016-Aug-17 15:33N 34°42' W 076°41'0 0.0
2016-Aug-17 14:33N 34°42' W 076°41'2 1.5
2016-Aug-17 13:33N 34°43' W 076°42'0 0.0
2016-Aug-17 12:33N 34°43' W 076°42'0 0.0
2016-Aug-17 11:33N 34°43' W 076°42'0 0.0
2016-Aug-17 10:33N 34°43' W 076°42'0 0.0
2016-Aug-17 09:33N 34°43' W 076°42'0 0.0
2016-Aug-17 08:33N 34°43' W 076°42'0 0.0
2016-Aug-17 07:33N 34°43' W 076°42'0 0.0
2016-Aug-17 05:32N 34°43' W 076°42'0 0.0
2016-Aug-17 04:33N 34°43' W 076°42'0 0.0
2016-Aug-17 03:33N 34°43' W 076°42'0 0.0
2016-Aug-17 02:33N 34°43' W 076°42'0 0.0
2016-Aug-17 01:33N 34°43' W 076°42'0 0.0
2016-Aug-17 00:33N 34°43' W 076°42'0 0.0
2016-Aug-16 23:33N 34°43' W 076°42'3 3.3
2016-Aug-16 22:33N 34°47' W 076°41'6 6.5
2016-Aug-16 21:33N 34°53' W 076°41'6 6.0
2016-Aug-16 20:33N 34°59' W 076°41'  
Track history (hours):
 
Tides and Currents Weather Stations Pressure Air Temp Water Temp Dewpoint Dewpoint Depression Visibility Wind Speed Wind Dir Waves Ship Positions

Currituck

Last reported at 2016-Aug-26 13:34 UTC. Time now 2016-Aug-26 13:46 UTC.
Position N 34°43' W 076°42'.

Length 45 m; draft 3 m.

Type: Dredging. MMSI: 369970446.

Date/timePositionNaut miles runAvg speedWind from/ knotsBaromVisibWave heightAir tempDewpointWater temp
2016-Aug-26 13:34N 34°43' W 076°42'0 0.0
2016-Aug-26 12:34N 34°43' W 076°42'0 0.0
2016-Aug-26 11:34N 34°43' W 076°42'0 0.0
2016-Aug-26 10:34N 34°43' W 076°42'0 0.0
2016-Aug-26 09:34N 34°43' W 076°42'0 0.0
2016-Aug-26 08:33N 34°43' W 076°42'0 0.0
2016-Aug-26 07:34N 34°43' W 076°42'0 0.0
2016-Aug-26 06:34N 34°43' W 076°42'0 0.0
2016-Aug-26 04:34N 34°43' W 076°42'0 0.0
2016-Aug-26 03:34N 34°43' W 076°42'0 0.0
2016-Aug-26 02:34N 34°43' W 076°42'0 0.0
2016-Aug-26 01:34N 34°43' W 076°42'0 0.0
2016-Aug-26 00:34N 34°43' W 076°42'0 0.4
2016-Aug-25 23:34N 34°43' W 076°42'0 0.0
2016-Aug-25 22:33N 34°43' W 076°42'0 0.0
2016-Aug-25 21:33N 34°43' W 076°42'0 0.0
2016-Aug-25 20:34N 34°43' W 076°42'0 0.0
2016-Aug-25 19:34N 34°43' W 076°42'0 0.0
2016-Aug-25 18:34N 34°43' W 076°42'0 0.0
2016-Aug-25 17:34N 34°43' W 076°42'0 0.4
2016-Aug-25 16:34N 34°43' W 076°42'0 0.0
2016-Aug-25 15:34N 34°43' W 076°42'0 0.0
2016-Aug-25 14:33N 34°43' W 076°42'0 0.0
2016-Aug-25 13:33N 34°43' W 076°42'0 0.0
2016-Aug-25 12:33N 34°43' W 076°42'0 0.0
2016-Aug-25 11:33N 34°43' W 076°42'0 0.0
2016-Aug-25 10:33N 34°43' W 076°42'0 0.0
2016-Aug-25 09:33N 34°43' W 076°42'0 0.0
2016-Aug-25 08:33N 34°43' W 076°42'0 0.0
2016-Aug-25 07:33N 34°43' W 076°42'0 0.0
2016-Aug-25 06:33N 34°43' W 076°42'0 0.0
2016-Aug-25 04:33N 34°43' W 076°42'0 0.0
2016-Aug-25 03:33N 34°43' W 076°42'0 0.0
2016-Aug-25 02:33N 34°43' W 076°42'0 0.0
2016-Aug-25 01:33N 34°43' W 076°42'0 0.0
2016-Aug-25 00:33N 34°43' W 076°42'0 0.0
2016-Aug-24 23:33N 34°43' W 076°42'0 0.0
2016-Aug-24 22:33N 34°43' W 076°42'0 0.0
2016-Aug-24 21:33N 34°43' W 076°42'1 0.7
2016-Aug-24 20:33N 34°43' W 076°42'4 3.9
2016-Aug-24 19:33N 34°42' W 076°37'0 0.0
2016-Aug-24 18:33N 34°43' W 076°37'0 0.1
2016-Aug-24 17:33N 34°42' W 076°37'4 4.4
2016-Aug-24 16:33N 34°43' W 076°42'0 0.0
2016-Aug-24 15:33N 34°43' W 076°42'0 0.0
2016-Aug-24 14:33N 34°43' W 076°42'0 0.0
2016-Aug-24 13:33N 34°43' W 076°42'0 0.0
2016-Aug-24 12:33N 34°43' W 076°42'0 0.0
2016-Aug-24 11:33N 34°43' W 076°42'0 0.0
2016-Aug-24 10:33N 34°43' W 076°42'0 0.0
2016-Aug-24 09:33N 34°43' W 076°42'0 0.0
2016-Aug-24 08:33N 34°43' W 076°42'0 0.0
2016-Aug-24 07:33N 34°43' W 076°42'0 0.0
2016-Aug-24 06:33N 34°43' W 076°42'0 0.0
2016-Aug-24 04:33N 34°43' W 076°42'0 0.0
2016-Aug-24 03:33N 34°43' W 076°42'0 0.0
2016-Aug-24 02:33N 34°43' W 076°42'0 0.0
2016-Aug-24 01:33N 34°43' W 076°42'0 0.0
2016-Aug-24 00:33N 34°43' W 076°42'0 0.0
2016-Aug-23 23:33N 34°43' W 076°42'0 0.0
2016-Aug-23 22:33N 34°43' W 076°42'0 0.0
2016-Aug-23 21:33N 34°43' W 076°42'0 0.0
2016-Aug-23 20:33N 34°43' W 076°42'0 0.0
2016-Aug-23 19:33N 34°43' W 076°42'0 0.3
2016-Aug-23 18:34N 34°43' W 076°42'2 2.1
2016-Aug-23 17:33N 34°42' W 076°40'2 2.1
2016-Aug-23 16:33N 34°43' W 076°38'1 0.9
2016-Aug-23 15:34N 34°43' W 076°37'3 2.9
2016-Aug-23 14:33N 34°41' W 076°40'1 1.0
2016-Aug-23 13:34N 34°42' W 076°41'0 0.0
2016-Aug-23 12:33N 34°42' W 076°41'2 2.2
2016-Aug-23 11:34N 34°40' W 076°41'2 2.2
2016-Aug-23 10:34N 34°42' W 076°41'2 1.6
2016-Aug-23 09:33N 34°43' W 076°42'0 0.0
2016-Aug-23 08:33N 34°43' W 076°42'0 0.0
2016-Aug-23 07:33N 34°43' W 076°42'0 0.0
2016-Aug-23 06:33N 34°43' W 076°42'0 0.0
2016-Aug-23 05:33N 34°43' W 076°42'0 0.0
2016-Aug-23 04:33N 34°43' W 076°42'0 0.0
2016-Aug-23 03:33N 34°43' W 076°42'0 0.0
2016-Aug-23 02:33N 34°43' W 076°42'0 0.0
2016-Aug-23 01:33N 34°43' W 076°42'0 0.0
2016-Aug-23 00:33N 34°43' W 076°42'0 0.0
2016-Aug-22 23:33N 34°43' W 076°42'0 0.0
2016-Aug-22 22:33N 34°43' W 076°42'0 0.0
2016-Aug-22 21:33N 34°43' W 076°42'2 2.4
2016-Aug-22 20:33N 34°42' W 076°40'1 0.8
2016-Aug-22 19:33N 34°42' W 076°41'0 0.0
2016-Aug-22 18:33N 34°42' W 076°41'2 2.1
2016-Aug-22 17:33N 34°40' W 076°41'2 2.2
2016-Aug-22 16:33N 34°42' W 076°41'2 1.8
2016-Aug-22 15:33N 34°41' W 076°40'2 1.8
2016-Aug-22 14:33N 34°42' W 076°41'0 0.4
2016-Aug-22 13:33N 34°42' W 076°40'0 0.1
2016-Aug-22 12:33N 34°42' W 076°40'0 0.5
2016-Aug-22 11:33N 34°42' W 076°41'2 1.5
2016-Aug-22 10:33N 34°43' W 076°42'0 0.1
2016-Aug-22 09:33N 34°43' W 076°42'0 0.0
2016-Aug-22 08:33N 34°43' W 076°42'0 0.0
2016-Aug-22 07:33N 34°43' W 076°42'0 0.0
2016-Aug-22 06:33N 34°43' W 076°42'0 0.0
2016-Aug-22 05:33N 34°43' W 076°42'0 0.0
2016-Aug-22 04:33N 34°43' W 076°42'0 0.0
2016-Aug-22 03:33N 34°43' W 076°42'0 0.0
2016-Aug-22 02:33N 34°43' W 076°42'0 0.0
2016-Aug-22 01:33N 34°43' W 076°42'  
2016-Aug-18 20:30N 34°41' W 076°40'2 1.8
2016-Aug-18 19:33N 34°42' W 076°41'2 2.3
2016-Aug-18 18:33N 34°40' W 076°41'2 2.2
2016-Aug-18 17:34N 34°42' W 076°41'2 2.3
2016-Aug-18 16:33N 34°40' W 076°41'2 2.3
2016-Aug-18 15:34N 34°42' W 076°41'2 2.2
2016-Aug-18 14:34N 34°40' W 076°41'3 3.2
2016-Aug-18 13:33N 34°43' W 076°38'1 1.2
2016-Aug-18 12:34N 34°42' W 076°37'3 3.2
2016-Aug-18 11:33N 34°41' W 076°40'2 1.8
2016-Aug-18 10:33N 34°42' W 076°41'2 1.6
2016-Aug-18 09:33N 34°43' W 076°42'0 0.0
2016-Aug-18 08:33N 34°43' W 076°42'0 0.0
2016-Aug-18 07:34N 34°43' W 076°42'0 0.0
2016-Aug-18 06:33N 34°43' W 076°42'0 0.0
2016-Aug-18 05:33N 34°43' W 076°42'0 0.0
2016-Aug-18 04:33N 34°43' W 076°42'0 0.0
2016-Aug-18 03:33N 34°43' W 076°42'0 0.0
2016-Aug-18 02:33N 34°43' W 076°42'0 0.0
2016-Aug-18 01:33N 34°43' W 076°42'0 0.0
2016-Aug-18 00:33N 34°43' W 076°42'0 0.0
2016-Aug-17 23:33N 34°43' W 076°42'0 0.0
2016-Aug-17 22:33N 34°43' W 076°42'0 0.0
2016-Aug-17 21:33N 34°43' W 076°42'3 2.9
2016-Aug-17 20:33N 34°41' W 076°40'1 1.4
2016-Aug-17 19:34N 34°42' W 076°41'1 0.9
2016-Aug-17 18:33N 34°41' W 076°40'1 0.9
2016-Aug-17 17:33N 34°42' W 076°41'2 2.1
2016-Aug-17 16:33N 34°40' W 076°41'2 2.1
2016-Aug-17 15:33N 34°42' W 076°41'0 0.0
2016-Aug-17 14:33N 34°42' W 076°41'2 1.5
2016-Aug-17 13:33N 34°43' W 076°42'0 0.0
2016-Aug-17 12:33N 34°43' W 076°42'0 0.0
2016-Aug-17 11:33N 34°43' W 076°42'0 0.0
2016-Aug-17 10:33N 34°43' W 076°42'0 0.0
2016-Aug-17 09:33N 34°43' W 076°42'0 0.0
2016-Aug-17 08:33N 34°43' W 076°42'0 0.0
2016-Aug-17 07:33N 34°43' W 076°42'0 0.0
2016-Aug-17 05:32N 34°43' W 076°42'0 0.0
2016-Aug-17 04:33N 34°43' W 076°42'0 0.0
2016-Aug-17 03:33N 34°43' W 076°42'0 0.0
2016-Aug-17 02:33N 34°43' W 076°42'0 0.0
2016-Aug-17 01:33N 34°43' W 076°42'0 0.0
2016-Aug-17 00:33N 34°43' W 076°42'0 0.0
2016-Aug-16 23:33N 34°43' W 076°42'3 3.3
2016-Aug-16 22:33N 34°47' W 076°41'6 6.5
2016-Aug-16 21:33N 34°53' W 076°41'6 6.0
2016-Aug-16 20:33N 34°59' W 076°41'  

Dump ship's entire track history